Time;durP1;ratioP1;P1;durP2;ratioP2;P2;SDS_P1;SDS_P2;PMS_P1;PMS_P2;Temp;Humidity;BMP_temperature;BMP_pressure;BME280_temperature;BME280_humidity;BME280_pressure;Samples;Min_cycle;Max_cycle;Signal;HPM_P1;HPM_P2
2022/08/11 00:00:59;;;;;;;;;;;19.10;99.90;;;;;;5055610;28;20040;-91
2022/08/11 00:03:25;;;;;;;8.13;3.95;;;18.90;99.90;;;;;;5072398;28;19916;-91
2022/08/11 00:05:54;;;;;;;8.63;5.43;;;18.90;99.90;;;;;;5055756;28;20101;-91
2022/08/11 00:08:25;;;;;;;10.88;4.93;;;18.90;99.90;;;;;;5055339;28;20078;-91
2022/08/11 00:10:58;;;;;;;9.27;4.55;;;18.90;99.90;;;;;;5055318;28;20033;-91
2022/08/11 00:13:44;;;;;;;8.20;4.35;;;18.90;99.90;;;;;;5072440;28;20190;-91
2022/08/11 00:16:18;;;;;;;8.80;4.53;;;18.90;99.90;;;;;;5054036;28;20406;-91
2022/08/11 00:18:50;;;;;;;9.88;4.35;;;18.90;99.90;;;;;;5072097;28;20055;-90
2022/08/11 00:21:17;;;;;;;8.95;4.40;;;18.90;99.90;;;;;;5055005;28;20040;-91
2022/08/11 00:23:56;;;;;;;7.95;3.90;;;18.80;99.90;;;;;;5055035;28;20036;-91
2022/08/11 00:26:23;;;;;;;7.63;4.45;;;18.90;99.90;;;;;;5072102;28;20138;-91
2022/08/11 00:28:50;;;;;;;11.00;4.35;;;18.80;99.90;;;;;;5071436;28;20393;-91
2022/08/11 00:31:27;;;;;;;9.38;4.40;;;18.70;99.90;;;;;;5071543;28;20105;-90
2022/08/11 00:33:54;;;;;;;8.52;5.38;;;18.60;99.90;;;;;;5055099;28;20040;-91
2022/08/11 00:36:27;;;;;;;8.23;4.40;;;18.50;99.90;;;;;;5054882;28;20044;-91
2022/08/11 00:38:55;;;;;;;8.13;5.00;;;18.40;99.90;;;;;;5054964;28;20048;-91
2022/08/11 00:41:38;;;;;;;9.93;5.40;;;18.40;99.90;;;;;;5071420;28;20066;-91
2022/08/11 00:44:20;;;;;;;9.57;5.45;;;18.40;99.90;;;;;;5071661;28;20505;-91
2022/08/11 00:47:05;;;;;;;;;;;18.30;99.90;;;;;;5055449;28;20044;-90
2022/08/11 00:49:57;;;;;;;9.57;5.40;;;18.10;99.90;;;;;;5054981;28;19917;-91
2022/08/11 00:52:47;;;;;;;11.23;5.40;;;18.10;99.90;;;;;;5054076;28;20044;-91
2022/08/11 00:55:29;;;;;;;10.98;5.68;;;18.10;99.90;;;;;;5071495;28;20101;-91
2022/08/11 00:58:01;;;;;;;11.48;3.60;;;18.10;99.90;;;;;;5071057;28;20045;-91
2022/08/11 01:00:33;;;;;;;9.18;5.13;;;18.00;99.90;;;;;;5071304;28;20063;-91
2022/08/11 01:03:17;;;;;;;10.70;5.47;;;18.00;99.90;;;;;;5054150;28;20032;-91
2022/08/11 01:06:19;;;;;;;8.82;5.32;;;18.00;99.90;;;;;;5070860;28;20036;-90
2022/08/11 01:09:08;;;;;;;10.93;5.88;;;18.00;99.90;;;;;;5054548;28;20044;-91
2022/08/11 01:11:56;;;;;;;10.30;5.60;;;17.90;99.90;;;;;;5054092;28;20505;-91
2022/08/11 01:14:40;;;;;;;8.75;5.32;;;18.00;99.90;;;;;;5054050;28;20087;-91
2022/08/11 01:17:25;;;;;;;8.75;4.68;;;17.90;99.90;;;;;;5070898;28;20185;-91
2022/08/11 01:20:14;;;;;;;10.35;5.10;;;17.90;99.90;;;;;;5054081;28;20128;-91
2022/08/11 01:22:54;;;;;;;9.60;6.07;;;17.80;99.90;;;;;;5053778;28;20032;-91
2022/08/11 01:25:45;;;;;;;9.15;6.60;;;17.80;99.90;;;;;;5070704;28;20040;-91
2022/08/11 01:28:19;;;;;;;9.32;5.60;;;17.80;99.90;;;;;;5070676;28;20041;-91
2022/08/11 01:30:47;;;;;;;9.90;5.85;;;17.70;99.90;;;;;;5070618;28;20040;-91
2022/08/11 01:33:19;;;;;;;8.88;5.03;;;17.70;99.90;;;;;;5070455;28;20033;-91
2022/08/11 01:36:03;;;;;;;9.55;5.72;;;17.70;99.90;;;;;;5070298;28;20045;-91
2022/08/11 01:39:19;;;;;;;9.52;6.22;;;17.80;99.90;;;;;;5071931;28;20051;-91
2022/08/11 01:45:41;;;;;;;10.20;6.50;;;17.80;99.90;;;;;;5032618;28;20049;-91
2022/08/11 01:48:21;;;;;;;10.57;6.40;;;17.80;99.90;;;;;;5053241;28;20047;-90
2022/08/11 01:51:10;;;;;;;10.55;6.30;;;17.90;99.90;;;;;;5070236;28;20552;-91
2022/08/11 01:54:04;;;;;;;9.32;6.00;;;17.80;99.90;;;;;;5053515;28;20068;-90
2022/08/11 01:56:56;;;;;;;10.05;6.15;;;17.90;99.90;;;;;;5053293;28;20040;-90
2022/08/11 01:59:28;;;;;;;10.13;6.35;;;17.90;99.90;;;;;;5071167;28;20067;-91
2022/08/11 02:05:24;;;;;;;10.07;6.65;;;17.80;99.90;;;;;;5069735;28;20037;-91
2022/08/11 02:07:52;;;;;;;10.70;6.88;;;17.80;99.90;;;;;;5070373;28;20401;-91
2022/08/11 02:13:29;;;;;;;11.90;7.68;;;17.80;99.90;;;;;;5069609;28;20048;-90
2022/08/11 02:16:06;;;;;;;10.27;6.63;;;17.80;99.90;;;;;;5053444;28;20044;-91
2022/08/11 02:24:53;;;;;;;9.95;7.03;;;17.80;99.90;;;;;;5070132;28;20044;-91
2022/08/11 02:27:29;;;;;;;9.40;6.68;;;17.80;99.90;;;;;;5069529;28;20037;-91
2022/08/11 02:30:06;;;;;;;9.05;6.57;;;17.70;99.90;;;;;;5053581;28;20048;-91
2022/08/11 02:35:51;;;;;;;11.02;8.15;;;17.60;99.90;;;;;;5069509;28;20052;-91
2022/08/11 02:38:42;;;;;;;9.73;7.10;;;17.60;99.90;;;;;;5063134;28;20052;-90
2022/08/11 02:44:35;;;;;;;10.40;6.90;;;17.50;99.90;;;;;;5073623;28;20040;-90
2022/08/11 02:47:16;;;;;;;10.70;6.80;;;17.50;99.90;;;;;;5073669;28;20127;-90
2022/08/11 02:49:58;;;;;;;9.57;6.78;;;17.40;99.90;;;;;;5056570;28;20033;-90
2022/08/11 02:52:30;;;;;;;9.00;6.57;;;17.40;99.90;;;;;;5056547;28;20040;-91
2022/08/11 02:55:20;;;;;;;10.35;7.40;;;17.30;99.90;;;;;;5073734;28;20056;-91
2022/08/11 02:57:55;;;;;;;9.02;6.53;;;17.30;99.90;;;;;;5073177;28;20045;-91
2022/08/11 03:00:21;;;;;;;10.05;7.72;;;17.30;99.90;;;;;;5073789;28;20040;-91
2022/08/11 03:03:24;;;;;;;11.52;8.55;;;17.30;99.90;;;;;;5073449;28;20472;-91
2022/08/11 03:06:04;;;;;;;11.50;8.35;;;17.30;99.90;;;;;;5018747;28;20111;-90
2022/08/11 03:08:39;;;;;;;11.85;9.38;;;17.30;99.90;;;;;;5035901;28;20530;-91
2022/08/11 03:17:27;;;;;;;11.75;8.43;;;17.30;99.90;;;;;;5035262;28;20045;-91
2022/08/11 03:20:24;;;;;;;8.93;6.65;;;17.30;99.90;;;;;;5018376;28;20040;-91
2022/08/11 03:23:01;;;;;;;10.25;6.85;;;17.20;99.90;;;;;;5029368;28;20399;-91
2022/08/11 03:25:43;;;;;;;9.65;7.00;;;17.10;99.90;;;;;;5035502;28;20040;-91
2022/08/11 03:28:30;;;;;;;9.70;7.03;;;17.00;99.90;;;;;;5034571;28;20063;-90
2022/08/11 03:31:23;;;;;;;12.00;7.28;;;16.90;99.90;;;;;;5034879;28;20143;-91
2022/08/11 03:34:15;;;;;;;9.13;6.57;;;16.90;99.90;;;;;;5018280;28;20421;-91
2022/08/11 03:37:08;;;;;;;11.98;7.47;;;16.80;99.90;;;;;;5027174;28;20056;-92
2022/08/11 03:40:11;;;;;;;12.43;8.50;;;16.80;99.90;;;;;;5035203;28;20043;-91
2022/08/11 03:42:42;;;;;;;8.45;4.03;;;16.70;99.90;;;;;;5072119;28;20067;-90
2022/08/11 03:45:18;;;;;;;11.75;6.88;;;16.50;99.90;;;;;;5072573;28;20071;-91
2022/08/11 03:47:43;;;;;;;12.00;6.90;;;16.50;99.90;;;;;;5073828;28;20044;-91
2022/08/11 03:50:31;;;;;;;10.18;6.45;;;16.60;99.90;;;;;;5072257;28;20086;-91
2022/08/11 03:53:27;;;;;;;10.57;7.68;;;16.50;99.90;;;;;;5072247;28;20044;-90
2022/08/11 03:56:31;;;;;;;9.98;7.22;;;16.60;99.90;;;;;;5055437;28;20421;-91
2022/08/11 03:59:29;;;;;;;11.32;7.65;;;16.60;99.90;;;;;;5072397;28;20040;-91
2022/08/11 04:02:32;;;;;;;9.95;7.28;;;16.50;99.90;;;;;;5055049;28;20044;-90
2022/08/11 04:05:20;;;;;;;10.93;8.77;;;16.50;99.90;;;;;;5055443;28;20082;-91
2022/08/11 04:08:19;;;;;;;11.30;8.38;;;16.50;99.90;;;;;;5072305;28;20110;-90
2022/08/11 04:11:09;;;;;;;11.93;9.45;;;16.40;99.90;;;;;;5055079;28;20044;-91
2022/08/11 04:15:58;;;;;;;12.43;10.40;;;16.50;99.90;;;;;;5055724;28;20044;-91
2022/08/11 04:17:20;;;;;;;11.02;8.35;;;16.50;99.90;;;;;;5071799;28;20075;-91
2022/08/11 04:20:08;;;;;;;8.82;4.57;;;16.50;99.90;;;;;;5055211;28;20044;-91
2022/08/11 04:23:21;;;;;;;8.20;5.72;;;16.40;99.90;;;;;;5054870;28;20044;-90
2022/08/11 04:26:24;;;;;;;9.02;3.80;;;16.30;99.90;;;;;;5023906;28;20040;-91
2022/08/11 04:29:05;;;;;;;9.02;5.90;;;16.20;99.90;;;;;;5055557;28;20474;-90
2022/08/11 04:32:21;;;;;;;9.55;7.53;;;16.20;99.90;;;;;;5071552;28;20040;-91
2022/08/11 04:34:59;;;;;;;9.80;7.18;;;16.30;99.90;;;;;;5054753;28;20032;-91
2022/08/11 04:37:45;;;;;;;10.50;7.97;;;16.30;99.90;;;;;;5054925;28;20102;-91
2022/08/11 04:40:39;;;;;;;11.90;8.73;;;16.30;99.90;;;;;;5055057;28;20493;-91
2022/08/11 04:43:29;;;;;;;11.13;9.48;;;16.30;99.90;;;;;;5070992;28;20040;-90
2022/08/11 04:46:17;;;;;;;11.55;9.05;;;16.30;99.90;;;;;;5071581;28;20037;-91
2022/08/11 05:02:33;;;;;;;12.93;9.95;;;16.30;99.90;;;;;;4996194;28;20076;-90
2022/08/11 05:05:35;;;;;;;14.77;9.48;;;16.30;99.90;;;;;;5033331;28;20131;-91
2022/08/11 05:08:18;;;;;;;12.82;10.18;;;16.30;99.90;;;;;;5033142;28;20045;-91
2022/08/11 05:11:20;;;;;;;12.93;9.40;;;16.40;99.90;;;;;;5016366;28;20402;-91
2022/08/11 05:37:00;;;;;;;13.80;11.10;;;16.80;99.90;;;;;;5070652;28;20053;-91
2022/08/11 05:56:20;;;;;;;14.88;11.13;;;17.20;99.90;;;;;;5069886;28;20053;-90
2022/08/11 05:58:49;;;;;;;13.98;9.85;;;17.40;99.90;;;;;;5070154;28;20125;-91
2022/08/11 06:01:30;;;;;;;13.80;11.63;;;17.40;99.90;;;;;;5053293;28;20094;-91
2022/08/11 06:04:13;;;;;;;14.07;10.75;;;17.50;99.90;;;;;;5069730;28;20046;-91
2022/08/11 06:06:53;;;;;;;13.88;6.78;;;17.60;99.90;;;;;;5053719;28;20040;-91
2022/08/11 06:09:29;;;;;;;11.60;9.35;;;17.60;99.90;;;;;;5069589;28;20545;-91
2022/08/11 06:12:01;;;;;;;12.57;10.02;;;17.70;99.90;;;;;;5068442;28;20119;-91
2022/08/11 06:14:28;;;;;;;14.25;9.57;;;17.80;99.90;;;;;;5051218;28;20489;-91
2022/08/11 06:16:58;;;;;;;13.60;10.00;;;17.90;99.90;;;;;;5050989;28;20584;-91
2022/08/11 06:19:32;;;;;;;11.90;9.07;;;18.00;99.90;;;;;;5051533;28;20039;-91
2022/08/11 06:21:59;;;;;;;12.50;9.13;;;18.10;99.90;;;;;;5051017;28;20405;-91
2022/08/11 06:24:28;;;;;;;12.02;9.32;;;18.10;99.90;;;;;;5067815;28;20037;-91
2022/08/11 06:26:55;;;;;;;11.00;8.05;;;18.20;99.90;;;;;;5068831;28;20044;-91
2022/08/11 06:29:22;;;;;;;12.73;8.52;;;18.30;99.90;;;;;;5070077;28;20227;-89
2022/08/11 06:32:11;;;;;;;12.00;9.18;;;18.40;99.90;;;;;;5069293;28;20052;-91
2022/08/11 06:35:06;;;;;;;11.98;8.25;;;18.50;99.90;;;;;;5053352;28;20039;-91
2022/08/11 06:37:59;;;;;;;10.95;7.88;;;18.60;99.90;;;;;;5052795;28;20040;-91
2022/08/11 06:40:35;;;;;;;14.88;7.40;;;18.70;99.90;;;;;;5069347;28;20043;-91
2022/08/11 06:43:14;;;;;;;12.50;7.60;;;18.80;99.90;;;;;;5052634;28;20044;-90
2022/08/11 06:46:01;;;;;;;9.63;6.60;;;18.90;99.90;;;;;;5053306;28;20516;-91
2022/08/11 06:48:30;;;;;;;11.60;6.55;;;19.00;99.90;;;;;;5069384;28;20056;-91
2022/08/11 06:51:13;;;;;;;10.85;5.90;;;19.10;99.90;;;;;;5052519;28;20040;-91
2022/08/11 06:53:55;;;;;;;9.48;5.45;;;19.20;99.90;;;;;;5052552;28;20040;-91
2022/08/11 07:02:24;;;;;;;11.13;4.28;;;19.50;99.90;;;;;;5068961;28;20045;-91
2022/08/11 07:05:00;;;;;;;13.80;4.97;;;19.60;99.90;;;;;;5052686;28;20041;-91
2022/08/11 07:16:43;;;;;;;9.02;4.07;;;20.00;99.90;;;;;;5069333;28;20406;-91
2022/08/11 07:30:25;;;;;;;7.82;3.38;;;20.60;99.90;;;;;;5072574;28;20052;-91
2022/08/11 07:32:54;;;;;;;7.57;3.40;;;20.70;99.90;;;;;;5073029;28;20041;-92
2022/08/11 07:35:35;;;;;;;11.45;3.47;;;20.80;99.90;;;;;;5072913;28;20037;-91
2022/08/11 07:38:06;;;;;;;7.25;3.13;;;20.90;99.90;;;;;;5055653;28;20040;-91
2022/08/11 07:40:33;;;;;;;7.68;3.08;;;21.00;99.90;;;;;;5072994;28;20493;-92
2022/08/11 07:43:00;;;;;;;10.23;3.67;;;21.10;99.90;;;;;;5056045;28;20439;-92
2022/08/11 07:53:42;;;;;;;9.30;3.28;;;21.50;99.90;;;;;;5073293;28;20441;-92
2022/08/11 07:56:09;;;;;;;7.25;2.47;;;21.60;99.90;;;;;;5055508;28;20040;-92
2022/08/11 08:17:59;;;;;;;6.93;2.40;;;22.40;99.90;;;;;;5072143;28;20052;-91
2022/08/11 08:20:28;;;;;;;8.40;2.28;;;22.50;99.90;;;;;;5072427;28;20039;-92
2022/08/11 08:22:57;;;;;;;4.82;2.00;;;22.60;99.90;;;;;;5054777;28;20037;-91
2022/08/11 08:25:28;;;;;;;7.18;2.42;;;22.70;99.90;;;;;;5072085;28;20486;-92
2022/08/11 08:27:55;;;;;;;5.97;1.80;;;22.80;99.90;;;;;;5055521;28;20051;-92
2022/08/11 08:33:08;;;;;;;6.68;1.90;;;23.00;99.90;;;;;;5073135;28;20048;-92
2022/08/11 08:35:36;;;;;;;7.32;2.00;;;23.10;99.90;;;;;;5072061;28;20044;-92
2022/08/11 08:38:03;;;;;;;6.78;2.28;;;23.30;99.90;;;;;;5054800;28;20047;-92
2022/08/11 08:40:29;;;;;;;8.43;2.33;;;23.40;99.90;;;;;;5038371;28;20044;-92
2022/08/11 08:43:01;;;;;;;7.30;2.17;;;23.40;99.90;;;;;;5071392;28;20247;-92
2022/08/11 08:45:27;;;;;;;7.53;1.92;;;23.50;99.90;;;;;;5072822;28;20032;-91
2022/08/11 08:48:05;;;;;;;5.90;1.85;;;23.60;99.80;;;;;;5054912;28;20454;-92
2022/08/11 08:53:30;;;;;;;5.63;1.83;;;23.80;96.70;;;;;;5071289;28;20048;-92
2022/08/11 08:55:58;;;;;;;7.47;1.92;;;23.90;95.90;;;;;;5054922;28;20047;-92
2022/08/11 08:58:25;;;;;;;6.60;2.05;;;24.10;94.50;;;;;;5054716;28;20489;-92
2022/08/11 09:00:55;;;;;;;4.93;1.67;;;24.10;94.80;;;;;;5054313;28;20131;-92
2022/08/11 09:03:21;;;;;;;5.65;1.80;;;24.30;93.00;;;;;;5071002;28;20123;-92
2022/08/11 09:05:48;;;;;;;8.25;2.40;;;24.40;93.10;;;;;;5065357;28;20083;-91
2022/08/11 09:08:18;;;;;;;6.03;1.70;;;24.40;91.70;;;;;;5061367;28;20033;-92
2022/08/11 09:11:48;;;;;;;6.90;1.77;;;24.60;87.30;;;;;;5066530;28;20053;-92
2022/08/11 09:13:33;;;;;;;3.28;1.40;;;24.60;86.00;;;;;;5071014;28;20425;-92
2022/08/11 09:15:58;;;;;;;6.97;1.92;;;24.70;82.30;;;;;;5070474;28;20032;-92
2022/08/11 09:18:24;;;;;;;5.63;1.42;;;24.80;84.40;;;;;;5054178;28;20408;-92
2022/08/11 09:20:50;;;;;;;7.07;2.10;;;24.80;82.40;;;;;;5072116;28;20036;-92
2022/08/11 09:28:46;;;;;;;5.63;1.92;;;25.20;75.20;;;;;;5070577;28;20068;-93
2022/08/11 09:31:13;;;;;;;5.10;1.80;;;25.30;69.10;;;;;;5070330;28;20046;-92
2022/08/11 09:33:41;;;;;;;4.93;1.67;;;25.40;67.60;;;;;;5054198;28;20444;-92
2022/08/11 09:41:39;;;;;;;5.10;1.63;;;25.60;65.80;;;;;;5070326;28;20044;-92
2022/08/11 09:46:54;;;;;;;6.18;1.80;;;25.90;64.70;;;;;;5070106;28;20040;-92
2022/08/11 09:49:20;;;;;;;8.45;1.83;;;26.00;66.00;;;;;;5070099;28;20437;-92
2022/08/11 09:51:48;;;;;;;5.35;1.50;;;26.10;64.00;;;;;;5053310;28;20097;-92
2022/08/11 09:54:15;;;;;;;5.15;1.88;;;26.10;63.00;;;;;;5070724;28;20039;-93
2022/08/11 09:59:26;;;;;;;4.50;1.52;;;26.30;61.90;;;;;;5070047;28;20493;-92
2022/08/11 10:01:58;;;;;;;4.28;1.60;;;26.40;61.10;;;;;;5069477;28;20036;-92
2022/08/11 10:04:47;;;;;;;4.00;1.92;;;26.60;61.00;;;;;;5071480;28;20119;-92
2022/08/11 10:07:15;;;;;;;8.05;1.95;;;26.60;61.60;;;;;;5069848;28;20047;-93
2022/08/11 10:09:45;;;;;;;7.55;1.80;;;26.60;60.80;;;;;;5070208;28;20043;-92
2022/08/11 10:12:36;;;;;;;6.97;1.73;;;26.70;59.60;;;;;;5052739;28;20051;-92
2022/08/11 10:20:41;;;;;;;5.38;2.03;;;27.00;58.00;;;;;;5070796;28;20040;-92
2022/08/11 10:28:38;;;;;;;7.13;1.73;;;27.30;57.00;;;;;;5057909;28;20044;-93
2022/08/11 10:33:58;;;;;;;5.25;1.80;;;27.40;56.00;;;;;;5049736;28;20041;-93
2022/08/11 10:36:30;;;;;;;7.00;1.60;;;27.50;56.10;;;;;;5032837;28;20041;-93
2022/08/11 10:38:57;;;;;;;5.47;1.70;;;27.50;54.80;;;;;;5033265;28;20036;-93
2022/08/11 10:44:09;;;;;;;6.90;2.00;;;27.70;54.40;;;;;;5048967;28;20041;-92
2022/08/11 10:49:22;;;;;;;8.88;2.50;;;27.90;54.00;;;;;;5049706;28;20045;-93
2022/08/11 11:00:05;;;;;;;7.10;2.00;;;28.20;53.10;;;;;;5054553;28;20087;-93
2022/08/11 11:02:32;;;;;;;7.65;2.10;;;28.30;52.50;;;;;;5061241;28;20415;-93
2022/08/11 11:05:13;;;;;;;10.65;2.13;;;28.40;53.00;;;;;;5062966;28;20094;-93
2022/08/11 11:07:56;;;;;;;5.45;1.88;;;28.50;52.10;;;;;;5062881;28;20459;-93
2022/08/11 11:10:22;;;;;;;3.70;1.50;;;28.50;51.90;;;;;;5070660;28;20432;-93
2022/08/11 11:18:34;;;;;;;5.30;1.80;;;28.80;50.70;;;;;;5074435;28;20438;-93
2022/08/11 11:21:03;;;;;;;6.10;2.00;;;28.90;50.70;;;;;;5072604;28;20033;-93
2022/08/11 11:23:35;;;;;;;5.18;1.60;;;29.00;50.30;;;;;;5073093;28;20060;-93
2022/08/11 11:26:18;;;;;;;5.40;2.00;;;29.10;50.30;;;;;;5056612;28;20067;-93
2022/08/11 11:29:09;;;;;;;4.85;1.85;;;29.20;48.90;;;;;;5072652;28;20040;-92
2022/08/11 11:32:05;;;;;;;9.18;1.85;;;29.20;49.80;;;;;;5072813;28;20127;-93
2022/08/11 11:35:04;;;;;;;6.72;1.80;;;29.40;49.90;;;;;;5051794;28;20528;-92
2022/08/11 11:37:35;;;;;;;4.80;1.88;;;29.40;50.60;;;;;;5072982;28;20040;-92
2022/08/11 11:40:21;;;;;;;6.97;1.73;;;29.60;49.50;;;;;;5072942;28;20053;-92
2022/08/11 11:42:49;;;;;;;5.47;1.70;;;29.70;49.80;;;;;;5072213;28;20048;-92
2022/08/11 11:45:19;;;;;;;4.85;1.50;;;29.70;49.10;;;;;;5072620;28;20048;-92
2022/08/11 11:47:51;;;;;;;5.95;1.65;;;29.90;48.70;;;;;;5056490;28;20044;-93
2022/08/11 11:50:22;;;;;;;4.38;1.38;;;30.00;49.40;;;;;;5072460;28;20115;-92
2022/08/11 11:52:50;;;;;;;5.55;1.55;;;30.10;48.10;;;;;;5055551;28;20088;-93
2022/08/11 11:55:17;;;;;;;8.05;1.55;;;30.20;47.40;;;;;;5072770;28;20497;-92
2022/08/11 12:03:13;;;;;;;5.88;1.65;;;30.50;47.30;;;;;;5072659;28;20429;-92
2022/08/11 12:05:41;;;;;;;6.50;1.45;;;30.60;46.70;;;;;;5072293;28;20133;-93
2022/08/11 12:08:16;;;;;;;5.72;1.30;;;30.80;47.80;;;;;;5055534;28;20059;-92
2022/08/11 12:13:49;;;;;;;6.88;1.30;;;31.00;47.40;;;;;;5071606;28;20498;-92
2022/08/11 12:16:16;;;;;;;5.40;1.50;;;31.20;46.80;;;;;;5055391;28;20047;-92
2022/08/11 12:18:46;;;;;;;4.28;1.40;;;31.30;45.50;;;;;;5055451;28;20554;-92
2022/08/11 12:21:14;;;;;;;5.88;1.50;;;31.50;44.60;;;;;;5073315;28;20430;-92
2022/08/11 12:29:11;;;;;;;4.30;1.50;;;31.60;44.50;;;;;;5072096;28;20049;-92
2022/08/11 12:31:39;;;;;;;3.70;1.33;;;31.70;44.20;;;;;;5038637;28;20036;-93
2022/08/11 12:34:07;;;;;;;8.70;1.73;;;31.90;43.90;;;;;;5072695;28;20033;-93
2022/08/11 12:36:39;;;;;;;5.60;1.40;;;32.00;43.40;;;;;;5054915;28;20072;-92
2022/08/11 12:39:09;;;;;;;4.85;1.30;;;32.00;41.90;;;;;;5073257;28;20104;-93
2022/08/11 12:47:12;;;;;;;4.22;1.65;;;32.10;41.50;;;;;;5071379;28;20490;-93
2022/08/11 12:52:34;;;;;;;5.72;1.33;;;32.30;42.10;;;;;;5071196;28;20044;-94
2022/08/11 12:54:59;;;;;;;;;;;32.50;42.20;;;;;;5072084;28;20044;-93
2022/08/11 13:05:55;;;;;;;6.80;1.42;;;32.90;39.90;;;;;;5071090;28;20048;-93
2022/08/11 13:08:23;;;;;;;4.65;1.60;;;33.00;40.30;;;;;;5071517;28;20127;-93
2022/08/11 13:13:36;;;;;;;4.35;1.25;;;33.20;40.00;;;;;;5071031;28;20044;-92
2022/08/11 13:16:02;;;;;;;3.67;1.15;;;33.20;38.70;;;;;;5037954;28;20076;-92
2022/08/11 13:18:28;;;;;;;5.43;1.40;;;33.40;39.20;;;;;;5053701;28;20044;-93
2022/08/11 13:20:56;;;;;;;6.50;1.40;;;33.50;38.80;;;;;;5071087;28;20421;-92
2022/08/11 13:23:23;;;;;;;4.18;1.27;;;33.60;38.10;;;;;;5070283;28;20033;-93
2022/08/11 13:25:52;;;;;;;5.05;1.45;;;33.70;38.80;;;;;;5054203;28;20409;-93
2022/08/11 13:28:20;;;;;;;3.88;1.35;;;33.80;38.30;;;;;;5071169;28;20170;-93
2022/08/11 13:33:32;;;;;;;4.75;1.20;;;34.10;39.00;;;;;;5070501;28;20521;-93
2022/08/11 13:35:58;;;;;;;4.07;1.25;;;34.20;38.10;;;;;;5070822;28;20119;-92
2022/08/11 13:38:24;;;;;;;4.90;1.20;;;34.40;37.50;;;;;;5070577;28;20044;-92
2022/08/11 13:40:53;;;;;;;7.78;1.40;;;34.50;37.00;;;;;;5053497;28;20078;-93
2022/08/11 13:43:20;;;;;;;5.05;1.10;;;34.50;36.80;;;;;;5053593;28;20085;-93
2022/08/11 13:45:47;;;;;;;4.45;1.20;;;34.60;36.80;;;;;;5070315;28;20076;-92
2022/08/11 13:48:15;;;;;;;4.55;1.20;;;34.70;36.90;;;;;;5071670;28;20114;-93
2022/08/11 13:53:29;;;;;;;4.82;1.27;;;35.00;37.30;;;;;;5071690;28;20040;-92
2022/08/11 13:55:58;;;;;;;3.83;1.20;;;35.20;36.80;;;;;;5071073;28;20117;-93
2022/08/11 13:58:24;;;;;;;2.15;1.00;;;35.30;36.50;;;;;;5071506;28;20502;-92
2022/08/11 14:00:52;;;;;;;3.38;1.10;;;35.30;36.30;;;;;;5069404;28;20403;-92
2022/08/11 14:03:23;;;;;;;3.38;1.15;;;35.40;36.10;;;;;;5043272;28;20040;-93
2022/08/11 14:05:52;;;;;;;3.95;1.10;;;35.60;35.90;;;;;;5061834;28;20035;-93
2022/08/11 14:08:23;;;;;;;4.32;1.23;;;35.70;36.00;;;;;;5071208;28;20036;-93
2022/08/11 14:13:36;;;;;;;5.35;1.30;;;35.70;35.50;;;;;;5069965;28;20725;-93
2022/08/11 14:13:42;;;;;;;4.60;1.20;;;35.70;35.20;;;;;;5070110;28;20057;-92
2022/08/11 14:16:29;;;;;;;4.03;1.02;;;35.70;35.50;;;;;;5071493;28;20044;-93
2022/08/11 14:19:00;;;;;;;5.47;1.10;;;35.60;35.20;;;;;;5052828;28;20044;-93
2022/08/11 14:24:11;;;;;;;5.22;1.10;;;35.70;35.80;;;;;;5071026;28;20036;-93
2022/08/11 14:26:42;;;;;;;3.67;1.23;;;35.70;35.30;;;;;;5052772;28;20041;-93
2022/08/11 14:29:19;;;;;;;3.63;1.00;;;35.80;35.60;;;;;;5071013;28;20044;-91
2022/08/11 14:31:47;;;;;;;2.97;1.10;;;35.70;34.80;;;;;;5069777;28;20036;-92
2022/08/11 14:34:17;;;;;;;6.13;1.40;;;35.60;34.50;;;;;;5068842;28;20036;-92
2022/08/11 14:36:45;;;;;;;4.53;1.10;;;35.60;34.90;;;;;;5069928;28;20111;-93
2022/08/11 14:39:16;;;;;;;4.65;1.35;;;35.50;34.90;;;;;;5069820;28;20048;-93
2022/08/11 14:47:19;;;;;;;4.93;1.25;;;35.50;34.90;;;;;;5071075;28;20397;-93
2022/08/11 14:49:45;;;;;;;4.55;1.90;;;35.50;35.30;;;;;;5069534;28;20043;-92
2022/08/11 14:52:16;;;;;;;4.35;1.27;;;35.50;35.40;;;;;;5064676;28;20040;-93
2022/08/11 14:57:36;;;;;;;5.68;1.30;;;35.50;34.90;;;;;;5062238;28;20102;-92
2022/08/11 15:00:09;;;;;;;5.40;1.90;;;35.50;35.10;;;;;;5060106;28;20078;-93
2022/08/11 15:05:24;;;;;;;4.97;1.30;;;35.30;34.60;;;;;;5068167;28;20052;-92
2022/08/11 15:07:52;;;;;;;4.95;1.30;;;35.30;34.60;;;;;;5053101;28;20444;-93
2022/08/11 15:10:19;;;;;;;4.60;1.42;;;35.20;34.60;;;;;;5068932;28;20044;-92
2022/08/11 15:12:45;;;;;;;4.78;0.93;;;35.20;34.40;;;;;;5046255;28;20044;-93
2022/08/11 15:18:00;;;;;;;5.00;1.30;;;35.00;33.60;;;;;;5049196;28;20057;-93
2022/08/11 15:37:24;;;;;;;4.65;1.15;;;34.80;35.30;;;;;;5050510;28;20037;-93
2022/08/11 15:37:26;;;;;;;3.17;1.15;;;34.60;35.60;;;;;;5050118;28;20049;-93
2022/08/11 15:45:48;;;;;;;5.22;1.27;;;34.60;35.20;;;;;;5051422;28;20490;-93
2022/08/11 15:48:26;;;;;;;4.82;1.35;;;34.50;35.60;;;;;;5034923;28;20051;-93
2022/08/11 15:50:56;;;;;;;6.07;1.40;;;34.40;36.20;;;;;;5052625;28;20069;-92
2022/08/11 15:53:24;;;;;;;5.07;1.40;;;34.30;36.40;;;;;;5052188;28;20048;-93
2022/08/11 15:55:51;;;;;;;5.10;1.35;;;34.20;36.70;;;;;;5052269;28;20037;-93
2022/08/11 16:04:13;;;;;;;8.93;1.70;;;34.00;37.40;;;;;;5053793;28;20041;-93
2022/08/11 16:06:56;;;;;;;8.93;2.13;;;33.90;37.10;;;;;;5053665;28;20091;-93
2022/08/11 16:09:34;;;;;;;5.75;1.88;;;33.90;37.20;;;;;;5035748;28;20080;-92
2022/08/11 16:12:07;;;;;;;7.07;1.58;;;33.80;37.60;;;;;;5044896;28;20127;-93
2022/08/11 16:17:24;;;;;;;7.32;1.40;;;33.70;37.30;;;;;;5065281;28;20056;-93
2022/08/11 16:19:53;;;;;;;5.60;1.67;;;33.70;38.00;;;;;;5062644;28;20552;-93
2022/08/11 16:22:33;;;;;;;5.25;1.85;;;33.60;37.60;;;;;;5043549;28;20508;-93
2022/08/11 16:25:00;;;;;;;5.43;1.52;;;33.50;37.80;;;;;;5047647;28;20036;-93
2022/08/11 16:27:27;;;;;;;4.68;1.50;;;33.50;37.60;;;;;;5063124;28;20040;-93
2022/08/11 16:29:54;;;;;;;4.97;1.40;;;33.40;37.50;;;;;;5061495;28;20374;-93
2022/08/11 16:32:22;;;;;;;5.22;1.40;;;33.20;37.80;;;;;;5051229;28;20040;-94
2022/08/11 16:40:25;;;;;;;3.80;1.30;;;33.00;38.50;;;;;;5062846;28;20048;-93
2022/08/11 16:48:27;;;;;;;3.65;1.40;;;32.90;39.40;;;;;;5072984;28;20048;-92
2022/08/11 16:50:53;;;;;;;5.00;1.40;;;32.80;39.40;;;;;;5071341;28;20575;-93
2022/08/11 16:53:19;;;;;;;3.50;1.45;;;32.80;39.40;;;;;;5070793;28;20517;-93
2022/08/11 16:55:47;;;;;;;5.50;1.70;;;32.70;39.40;;;;;;5054547;28;20055;-93
2022/08/11 17:01:00;;;;;;;5.35;1.77;;;32.50;39.50;;;;;;5071210;28;20448;-93
2022/08/11 17:14:53;;;;;;;6.70;1.63;;;32.20;39.70;;;;;;5071164;28;20409;-92
2022/08/11 17:17:29;;;;;;;6.63;1.70;;;32.10;39.90;;;;;;5055923;28;20047;-93
2022/08/11 17:20:01;;;;;;;6.05;1.50;;;32.10;40.10;;;;;;5034374;28;20491;-92
2022/08/11 17:25:16;;;;;;;4.43;1.60;;;31.90;40.00;;;;;;5051038;28;20049;-93
2022/08/11 17:27:43;;;;;;;5.25;1.50;;;31.80;40.20;;;;;;5052232;28;20414;-93
2022/08/11 17:30:10;;;;;;;5.32;1.90;;;31.80;40.20;;;;;;5050785;28;20048;-93
2022/08/11 17:35:45;;;;;;;6.20;1.48;;;31.70;40.30;;;;;;5070450;28;20059;-92
2022/08/11 17:38:20;;;;;;;5.50;1.58;;;31.60;40.30;;;;;;5070407;28;20493;-92
2022/08/11 17:49:10;;;;;;;5.97;1.90;;;31.30;41.00;;;;;;5071790;28;20044;-93
2022/08/11 17:59:56;;;;;;;5.72;1.75;;;31.00;41.30;;;;;;5070118;28;20075;-93
2022/08/11 18:05:36;;;;;;;7.43;1.80;;;30.80;41.50;;;;;;5070366;28;20044;-92
